Date,TemperatureHighF,TemperatureAvgF,TemperatureLowF,DewpointHighF,DewpointAvgF,DewpointLowF,HumidityHigh,HumidityAvg,HumidityLow,PressureMaxIn,PressureMinIn,WindSpeedMaxMPH,WindSpeedAvgMPH,GustSpeedMaxMPH,PrecipitationSumIn
2013-9-1,84.7,76.8,70.4,73.0,71.1,69.1,97,83,64,28.61,28.50,7,1,18,0.00
2013-9-2,83.6,74.5,65.0,70.9,65.9,60.7,98,77,51,28.68,28.58,3,1,12,0.00
2013-9-3,85.5,70.9,55.8,66.8,60.8,55.0,100,74,42,28.76,28.68,3,0,7,0.00
2013-9-4,86.3,71.2,54.9,65.5,61.2,53.8,99,73,46,28.84,28.74,2,0,7,0.00
2013-9-5,86.1,71.7,57.1,66.6,62.0,56.0,98,74,46,28.89,28.79,2,0,9,0.00
2013-9-6,85.6,72.5,59.7,67.4,63.2,58.6,99,75,43,28.84,28.71,5,0,9,0.00
2013-9-7,91.0,76.0,63.4,71.7,66.9,61.7,98,76,48,28.75,28.63,5,1,12,0.00
2013-9-8,91.4,76.7,64.6,75.1,69.7,63.6,98,80,55,28.67,28.58,1,0,10,0.00
2013-9-9,92.6,79.4,67.2,71.9,69.0,66.3,98,74,45,28.70,28.62,6,1,13,0.00
2013-9-10,92.4,77.6,64.0,71.0,66.7,62.8,98,72,39,28.81,28.68,5,0,12,0.00
2013-9-11,91.5,77.7,64.8,73.1,68.3,63.3,97,75,50,28.83,28.74,5,0,9,0.00
2013-9-12,88.0,76.7,67.1,73.0,69.0,65.3,98,78,58,28.77,28.69,5,0,14,0.00
2013-9-13,75.3,66.8,54.4,65.6,54.7,51.7,91,67,48,28.80,28.70,5,1,13,0.00
2013-9-14,76.7,63.9,48.6,56.7,52.4,46.4,93,68,43,28.79,28.68,6,1,13,0.00
2013-9-15,85.2,70.3,56.5,67.6,58.5,50.6,81,67,52,28.74,28.69,6,1,12,0.00
2013-9-16,73.4,68.2,65.2,68.3,64.9,61.5,97,90,78,28.87,28.74,3,0,7,0.12
2013-9-17,79.3,70.7,62.8,69.6,65.6,61.7,97,85,67,28.85,28.70,7,1,13,0.15
2013-9-18,81.2,73.8,67.9,73.0,69.2,65.8,95,86,71,28.72,28.63,7,1,13,0.22
2013-9-19,89.0,76.9,71.2,73.9,69.6,66.7,91,79,54,28.69,28.57,13,2,22,0.00
2013-9-20,73.4,65.6,57.5,70.3,62.6,52.7,99,91,71,28.66,28.60,10,1,20,2.01
2013-9-21,72.8,59.5,47.3,54.5,50.2,46.4,99,75,43,28.69,28.60,5,1,15,0.01
2013-9-22,74.8,59.3,43.2,56.0,50.5,42.1,99,76,47,28.68,28.57,6,1,13,0.00
2013-9-23,75.7,63.0,48.8,60.0,54.2,47.0,96,75,52,28.63,28.51,8,2,18,0.00
2013-9-24,77.5,66.2,56.9,62.1,58.7,54.5,95,78,58,28.59,28.50,3,1,12,0.00
2013-9-25,78.5,65.8,52.1,64.3,59.3,51.3,99,81,58,28.56,28.50,3,0,7,0.00
2013-9-26,80.5,68.3,57.5,65.2,61.3,56.7,98,80,55,28.66,28.55,9,2,16,0.00
2013-9-27,82.2,72.2,63.2,68.0,64.3,61.7,95,78,54,28.72,28.62,10,3,18,0.00
2013-9-28,78.0,68.5,61.8,68.9,64.8,60.9,98,88,72,28.72,28.60,9,2,17,0.46
2013-9-29,74.9,63.3,54.8,60.7,56.4,53.7,98,80,52,28.74,28.62,5,1,10,0.04
2013-9-30,75.7,66.6,55.5,66.5,63.0,53.8,99,89,69,28.63,28.55,6,2,14,0.00